sensor_id;sensor_type;location;lat;lon;timestamp;P1;durP1;ratioP1;P2;durP2;ratioP2
14007;SDS011;61651;45.508;12.232;2022-07-23T00:00:50;12.40;;;11.35;;
14007;SDS011;61651;45.508;12.232;2022-07-23T00:03:52;12.50;;;11.40;;
14007;SDS011;61651;45.508;12.232;2022-07-23T00:06:55;13.15;;;11.80;;
14007;SDS011;61651;45.508;12.232;2022-07-23T00:09:57;13.32;;;12.07;;
14007;SDS011;61651;45.508;12.232;2022-07-23T00:13:00;12.63;;;11.63;;
14007;SDS011;61651;45.508;12.232;2022-07-23T00:16:03;13.10;;;11.73;;
14007;SDS011;61651;45.508;12.232;2022-07-23T00:19:05;13.95;;;12.85;;
14007;SDS011;61651;45.508;12.232;2022-07-23T00:22:07;15.52;;;12.80;;
14007;SDS011;61651;45.508;12.232;2022-07-23T00:25:09;13.05;;;12.02;;
14007;SDS011;61651;45.508;12.232;2022-07-23T00:28:12;16.13;;;14.27;;
14007;SDS011;61651;45.508;12.232;2022-07-23T00:31:14;14.43;;;13.10;;
14007;SDS011;61651;45.508;12.232;2022-07-23T00:34:17;15.27;;;13.68;;
14007;SDS011;61651;45.508;12.232;2022-07-23T00:37:19;16.50;;;15.05;;
14007;SDS011;61651;45.508;12.232;2022-07-23T00:40:20;16.23;;;14.50;;
14007;SDS011;61651;45.508;12.232;2022-07-23T00:43:24;15.52;;;14.23;;
14007;SDS011;61651;45.508;12.232;2022-07-23T00:46:26;16.02;;;14.70;;
14007;SDS011;61651;45.508;12.232;2022-07-23T00:49:29;15.52;;;14.23;;
14007;SDS011;61651;45.508;12.232;2022-07-23T00:52:31;15.55;;;14.05;;
14007;SDS011;61651;45.508;12.232;2022-07-23T00:55:34;15.57;;;14.18;;
14007;SDS011;61651;45.508;12.232;2022-07-23T00:58:38;16.77;;;15.10;;
14007;SDS011;61651;45.508;12.232;2022-07-23T01:01:41;16.00;;;14.50;;
14007;SDS011;61651;45.508;12.232;2022-07-23T01:04:45;17.52;;;16.02;;
14007;SDS011;61651;45.508;12.232;2022-07-23T01:07:47;16.00;;;14.43;;
14007;SDS011;61651;45.508;12.232;2022-07-23T01:10:50;18.27;;;16.48;;
14007;SDS011;61651;45.508;12.232;2022-07-23T01:13:54;16.55;;;14.82;;
14007;SDS011;61651;45.508;12.232;2022-07-23T01:16:56;16.33;;;14.85;;
14007;SDS011;61651;45.508;12.232;2022-07-23T01:19:58;17.55;;;16.02;;
14007;SDS011;61651;45.508;12.232;2022-07-23T01:23:01;17.00;;;15.57;;
14007;SDS011;61651;45.508;12.232;2022-07-23T01:26:03;17.35;;;15.57;;
14007;SDS011;61651;45.508;12.232;2022-07-23T01:29:05;18.27;;;15.68;;
14007;SDS011;61651;45.508;12.232;2022-07-23T01:32:07;17.30;;;15.82;;
14007;SDS011;61651;45.508;12.232;2022-07-23T01:35:09;17.08;;;15.27;;
14007;SDS011;61651;45.508;12.232;2022-07-23T01:38:13;16.23;;;14.82;;
14007;SDS011;61651;45.508;12.232;2022-07-23T01:41:15;17.38;;;15.77;;
14007;SDS011;61651;45.508;12.232;2022-07-23T01:44:17;16.45;;;15.05;;
14007;SDS011;61651;45.508;12.232;2022-07-23T01:47:19;17.38;;;15.77;;
14007;SDS011;61651;45.508;12.232;2022-07-23T01:50:21;18.30;;;16.75;;
14007;SDS011;61651;45.508;12.232;2022-07-23T01:53:24;18.10;;;16.55;;
14007;SDS011;61651;45.508;12.232;2022-07-23T01:56:26;18.13;;;16.48;;
14007;SDS011;61651;45.508;12.232;2022-07-23T01:59:28;18.45;;;16.75;;
14007;SDS011;61651;45.508;12.232;2022-07-23T02:02:30;19.05;;;17.15;;
14007;SDS011;61651;45.508;12.232;2022-07-23T02:05:32;19.00;;;17.45;;
14007;SDS011;61651;45.508;12.232;2022-07-23T02:08:36;19.17;;;17.40;;
14007;SDS011;61651;45.508;12.232;2022-07-23T02:11:38;19.30;;;17.52;;
14007;SDS011;61651;45.508;12.232;2022-07-23T02:14:40;19.02;;;17.23;;
14007;SDS011;61651;45.508;12.232;2022-07-23T02:17:42;18.20;;;16.58;;
14007;SDS011;61651;45.508;12.232;2022-07-23T02:20:44;19.67;;;17.35;;
14007;SDS011;61651;45.508;12.232;2022-07-23T02:23:47;17.50;;;15.90;;
14007;SDS011;61651;45.508;12.232;2022-07-23T02:26:49;19.40;;;17.58;;
14007;SDS011;61651;45.508;12.232;2022-07-23T02:29:51;19.73;;;17.60;;
14007;SDS011;61651;45.508;12.232;2022-07-23T02:32:53;18.13;;;16.38;;
14007;SDS011;61651;45.508;12.232;2022-07-23T02:35:55;18.10;;;16.50;;
14007;SDS011;61651;45.508;12.232;2022-07-23T02:38:59;17.67;;;16.00;;
14007;SDS011;61651;45.508;12.232;2022-07-23T02:42:01;16.98;;;15.38;;
14007;SDS011;61651;45.508;12.232;2022-07-23T02:45:03;16.20;;;14.77;;
14007;SDS011;61651;45.508;12.232;2022-07-23T02:48:06;17.35;;;15.55;;
14007;SDS011;61651;45.508;12.232;2022-07-23T02:51:08;16.95;;;15.48;;
14007;SDS011;61651;45.508;12.232;2022-07-23T02:54:11;16.60;;;15.10;;
14007;SDS011;61651;45.508;12.232;2022-07-23T02:57:13;17.30;;;15.70;;
14007;SDS011;61651;45.508;12.232;2022-07-23T03:00:15;15.90;;;14.60;;
14007;SDS011;61651;45.508;12.232;2022-07-23T03:03:17;17.30;;;15.55;;
14007;SDS011;61651;45.508;12.232;2022-07-23T03:06:19;17.50;;;15.90;;
14007;SDS011;61651;45.508;12.232;2022-07-23T03:09:23;16.20;;;14.77;;
14007;SDS011;61651;45.508;12.232;2022-07-23T03:12:25;15.68;;;14.18;;
14007;SDS011;61651;45.508;12.232;2022-07-23T03:15:27;15.77;;;14.20;;
14007;SDS011;61651;45.508;12.232;2022-07-23T03:18:29;16.13;;;14.82;;
14007;SDS011;61651;45.508;12.232;2022-07-23T03:21:31;17.27;;;15.70;;
14007;SDS011;61651;45.508;12.232;2022-07-23T03:24:35;16.58;;;15.18;;
14007;SDS011;61651;45.508;12.232;2022-07-23T03:27:55;16.15;;;14.75;;
14007;SDS011;61651;45.508;12.232;2022-07-23T03:30:57;16.52;;;15.05;;
14007;SDS011;61651;45.508;12.232;2022-07-23T03:33:59;15.32;;;14.05;;
14007;SDS011;61651;45.508;12.232;2022-07-23T03:37:02;15.13;;;13.73;;
14007;SDS011;61651;45.508;12.232;2022-07-23T03:40:06;15.70;;;14.38;;
14007;SDS011;61651;45.508;12.232;2022-07-23T03:43:09;16.13;;;14.65;;
14007;SDS011;61651;45.508;12.232;2022-07-23T03:46:11;15.90;;;14.35;;
14007;SDS011;61651;45.508;12.232;2022-07-23T03:49:13;15.93;;;14.32;;
14007;SDS011;61651;45.508;12.232;2022-07-23T03:52:15;15.80;;;14.32;;
14007;SDS011;61651;45.508;12.232;2022-07-23T03:55:18;14.43;;;13.10;;
14007;SDS011;61651;45.508;12.232;2022-07-23T03:58:20;15.65;;;14.20;;
14007;SDS011;61651;45.508;12.232;2022-07-23T04:01:22;15.30;;;13.70;;
14007;SDS011;61651;45.508;12.232;2022-07-23T04:04:24;15.00;;;13.70;;
14007;SDS011;61651;45.508;12.232;2022-07-23T04:07:26;15.63;;;14.32;;
14007;SDS011;61651;45.508;12.232;2022-07-23T04:10:30;15.07;;;13.68;;
14007;SDS011;61651;45.508;12.232;2022-07-23T04:13:32;14.98;;;13.60;;
14007;SDS011;61651;45.508;12.232;2022-07-23T04:16:34;13.73;;;12.43;;
14007;SDS011;61651;45.508;12.232;2022-07-23T04:19:36;14.23;;;13.02;;
14007;SDS011;61651;45.508;12.232;2022-07-23T04:22:40;14.43;;;13.23;;
14007;SDS011;61651;45.508;12.232;2022-07-23T04:25:44;14.32;;;13.10;;
14007;SDS011;61651;45.508;12.232;2022-07-23T04:28:46;14.23;;;13.02;;
14007;SDS011;61651;45.508;12.232;2022-07-23T04:31:48;14.85;;;13.55;;
14007;SDS011;61651;45.508;12.232;2022-07-23T04:34:50;14.38;;;13.05;;
14007;SDS011;61651;45.508;12.232;2022-07-23T04:37:52;14.70;;;13.40;;
14007;SDS011;61651;45.508;12.232;2022-07-23T04:40:55;14.75;;;13.25;;
14007;SDS011;61651;45.508;12.232;2022-07-23T04:43:57;15.32;;;13.93;;
14007;SDS011;61651;45.508;12.232;2022-07-23T04:46:59;15.07;;;13.57;;
14007;SDS011;61651;45.508;12.232;2022-07-23T04:50:01;15.73;;;13.85;;
14007;SDS011;61651;45.508;12.232;2022-07-23T04:53:03;15.73;;;13.88;;
14007;SDS011;61651;45.508;12.232;2022-07-23T04:56:07;17.17;;;15.38;;
14007;SDS011;61651;45.508;12.232;2022-07-23T04:59:09;15.77;;;14.32;;
14007;SDS011;61651;45.508;12.232;2022-07-23T05:02:11;17.23;;;15.70;;
14007;SDS011;61651;45.508;12.232;2022-07-23T05:05:13;15.90;;;14.38;;
14007;SDS011;61651;45.508;12.232;2022-07-23T05:08:15;16.80;;;15.02;;
14007;SDS011;61651;45.508;12.232;2022-07-23T05:11:18;16.33;;;14.73;;
14007;SDS011;61651;45.508;12.232;2022-07-23T05:14:20;16.38;;;14.77;;
14007;SDS011;61651;45.508;12.232;2022-07-23T05:17:23;17.00;;;14.88;;
14007;SDS011;61651;45.508;12.232;2022-07-23T05:20:25;15.43;;;14.13;;
14007;SDS011;61651;45.508;12.232;2022-07-23T05:23:27;15.60;;;14.27;;
14007;SDS011;61651;45.508;12.232;2022-07-23T05:26:30;16.67;;;15.18;;
14007;SDS011;61651;45.508;12.232;2022-07-23T05:29:32;17.40;;;15.73;;
14007;SDS011;61651;45.508;12.232;2022-07-23T05:32:34;16.67;;;15.07;;
14007;SDS011;61651;45.508;12.232;2022-07-23T05:35:37;17.48;;;15.90;;
14007;SDS011;61651;45.508;12.232;2022-07-23T05:38:39;16.67;;;15.15;;
14007;SDS011;61651;45.508;12.232;2022-07-23T05:41:42;17.67;;;16.08;;
14007;SDS011;61651;45.508;12.232;2022-07-23T05:44:44;17.13;;;15.65;;
14007;SDS011;61651;45.508;12.232;2022-07-23T05:47:47;16.63;;;15.10;;
14007;SDS011;61651;45.508;12.232;2022-07-23T05:50:50;17.42;;;15.75;;
14007;SDS011;61651;45.508;12.232;2022-07-23T05:53:52;18.30;;;16.42;;
14007;SDS011;61651;45.508;12.232;2022-07-23T05:56:55;18.40;;;16.50;;
14007;SDS011;61651;45.508;12.232;2022-07-23T05:59:57;17.88;;;16.27;;
14007;SDS011;61651;45.508;12.232;2022-07-23T06:02:59;17.48;;;15.68;;
14007;SDS011;61651;45.508;12.232;2022-07-23T06:06:01;17.45;;;15.80;;
14007;SDS011;61651;45.508;12.232;2022-07-23T06:09:03;17.50;;;15.98;;
14007;SDS011;61651;45.508;12.232;2022-07-23T06:12:07;17.27;;;15.57;;
14007;SDS011;61651;45.508;12.232;2022-07-23T06:15:10;17.17;;;15.48;;
14007;SDS011;61651;45.508;12.232;2022-07-23T06:18:12;17.88;;;16.25;;
14007;SDS011;61651;45.508;12.232;2022-07-23T06:21:14;17.45;;;15.77;;
14007;SDS011;61651;45.508;12.232;2022-07-23T06:24:16;16.20;;;14.70;;
14007;SDS011;61651;45.508;12.232;2022-07-23T06:27:19;16.85;;;15.32;;
14007;SDS011;61651;45.508;12.232;2022-07-23T06:30:21;17.55;;;15.95;;
14007;SDS011;61651;45.508;12.232;2022-07-23T06:33:23;16.58;;;14.88;;
14007;SDS011;61651;45.508;12.232;2022-07-23T06:36:25;17.23;;;15.52;;
14007;SDS011;61651;45.508;12.232;2022-07-23T06:39:27;18.98;;;17.02;;
14007;SDS011;61651;45.508;12.232;2022-07-23T06:42:31;17.60;;;15.70;;
14007;SDS011;61651;45.508;12.232;2022-07-23T06:45:33;19.17;;;17.55;;
14007;SDS011;61651;45.508;12.232;2022-07-23T06:48:35;18.60;;;16.80;;
14007;SDS011;61651;45.508;12.232;2022-07-23T06:51:37;18.95;;;17.20;;
14007;SDS011;61651;45.508;12.232;2022-07-23T06:54:39;19.70;;;18.05;;
14007;SDS011;61651;45.508;12.232;2022-07-23T06:57:42;19.35;;;17.73;;
14007;SDS011;61651;45.508;12.232;2022-07-23T07:00:44;19.95;;;17.83;;
14007;SDS011;61651;45.508;12.232;2022-07-23T07:03:46;18.40;;;16.88;;
14007;SDS011;61651;45.508;12.232;2022-07-23T07:06:48;19.45;;;17.75;;
14007;SDS011;61651;45.508;12.232;2022-07-23T07:09:50;18.90;;;17.10;;
14007;SDS011;61651;45.508;12.232;2022-07-23T07:12:54;20.20;;;18.38;;
14007;SDS011;61651;45.508;12.232;2022-07-23T07:15:56;20.25;;;18.33;;
14007;SDS011;61651;45.508;12.232;2022-07-23T07:18:58;18.13;;;16.52;;
14007;SDS011;61651;45.508;12.232;2022-07-23T07:22:00;19.73;;;17.92;;
14007;SDS011;61651;45.508;12.232;2022-07-23T07:25:02;19.33;;;17.42;;
14007;SDS011;61651;45.508;12.232;2022-07-23T07:28:05;18.20;;;16.60;;
14007;SDS011;61651;45.508;12.232;2022-07-23T07:31:07;16.60;;;15.25;;
14007;SDS011;61651;45.508;12.232;2022-07-23T07:34:10;15.93;;;14.55;;
14007;SDS011;61651;45.508;12.232;2022-07-23T07:37:12;22.42;;;15.68;;
14007;SDS011;61651;45.508;12.232;2022-07-23T07:40:14;14.50;;;13.30;;
14007;SDS011;61651;45.508;12.232;2022-07-23T07:43:17;13.85;;;12.63;;
14007;SDS011;61651;45.508;12.232;2022-07-23T07:46:19;14.95;;;13.60;;
14007;SDS011;61651;45.508;12.232;2022-07-23T07:49:24;14.13;;;12.80;;
14007;SDS011;61651;45.508;12.232;2022-07-23T07:52:26;17.05;;;12.60;;
14007;SDS011;61651;45.508;12.232;2022-07-23T07:55:27;12.98;;;11.88;;
14007;SDS011;61651;45.508;12.232;2022-07-23T07:58:31;13.35;;;12.15;;
14007;SDS011;61651;45.508;12.232;2022-07-23T08:01:33;13.70;;;12.32;;
14007;SDS011;61651;45.508;12.232;2022-07-23T08:04:35;13.50;;;12.38;;
14007;SDS011;61651;45.508;12.232;2022-07-23T08:07:37;13.52;;;12.15;;
14007;SDS011;61651;45.508;12.232;2022-07-23T08:10:40;12.18;;;11.18;;
14007;SDS011;61651;45.508;12.232;2022-07-23T08:13:44;13.23;;;12.13;;
14007;SDS011;61651;45.508;12.232;2022-07-23T08:16:46;12.88;;;11.75;;
14007;SDS011;61651;45.508;12.232;2022-07-23T08:19:48;13.23;;;11.52;;
14007;SDS011;61651;45.508;12.232;2022-07-23T08:22:51;12.93;;;11.90;;
14007;SDS011;61651;45.508;12.232;2022-07-23T08:25:54;12.55;;;11.25;;
14007;SDS011;61651;45.508;12.232;2022-07-23T08:28:58;12.35;;;11.15;;
14007;SDS011;61651;45.508;12.232;2022-07-23T08:32:01;10.50;;;9.68;;
14007;SDS011;61651;45.508;12.232;2022-07-23T08:35:03;11.00;;;10.02;;
14007;SDS011;61651;45.508;12.232;2022-07-23T08:38:06;11.63;;;10.63;;
14007;SDS011;61651;45.508;12.232;2022-07-23T08:41:09;12.05;;;10.88;;
14007;SDS011;61651;45.508;12.232;2022-07-23T08:44:13;11.30;;;10.20;;
14007;SDS011;61651;45.508;12.232;2022-07-23T08:47:17;12.02;;;10.85;;
14007;SDS011;61651;45.508;12.232;2022-07-23T08:50:19;12.40;;;11.20;;
14007;SDS011;61651;45.508;12.232;2022-07-23T08:53:22;11.60;;;10.50;;
14007;SDS011;61651;45.508;12.232;2022-07-23T08:56:25;10.88;;;9.73;;
14007;SDS011;61651;45.508;12.232;2022-07-23T08:59:30;10.38;;;9.38;;
14007;SDS011;61651;45.508;12.232;2022-07-23T09:02:37;9.45;;;8.52;;
14007;SDS011;61651;45.508;12.232;2022-07-23T09:05:41;9.38;;;8.57;;
14007;SDS011;61651;45.508;12.232;2022-07-23T09:08:43;11.25;;;8.98;;
14007;SDS011;61651;45.508;12.232;2022-07-23T09:11:46;9.88;;;9.07;;
14007;SDS011;61651;45.508;12.232;2022-07-23T09:14:50;10.65;;;9.60;;
14007;SDS011;61651;45.508;12.232;2022-07-23T09:17:52;14.52;;;8.38;;
14007;SDS011;61651;45.508;12.232;2022-07-23T09:21:05;12.93;;;9.38;;
14007;SDS011;61651;45.508;12.232;2022-07-23T09:24:08;10.43;;;9.52;;
14007;SDS011;61651;45.508;12.232;2022-07-23T09:27:11;13.23;;;10.30;;
14007;SDS011;61651;45.508;12.232;2022-07-23T09:30:15;10.60;;;9.73;;
14007;SDS011;61651;45.508;12.232;2022-07-23T09:33:17;10.77;;;9.88;;
14007;SDS011;61651;45.508;12.232;2022-07-23T09:36:29;10.38;;;9.50;;
14007;SDS011;61651;45.508;12.232;2022-07-23T09:39:32;12.30;;;10.05;;
14007;SDS011;61651;45.508;12.232;2022-07-23T09:42:34;10.70;;;9.60;;
14007;SDS011;61651;45.508;12.232;2022-07-23T09:45:38;10.75;;;9.82;;
14007;SDS011;61651;45.508;12.232;2022-07-23T09:48:40;10.68;;;9.60;;
14007;SDS011;61651;45.508;12.232;2022-07-23T09:51:46;11.75;;;9.40;;
14007;SDS011;61651;45.508;12.232;2022-07-23T09:54:50;10.88;;;9.98;;
14007;SDS011;61651;45.508;12.232;2022-07-23T09:57:59;13.30;;;10.65;;
14007;SDS011;61651;45.508;12.232;2022-07-23T10:01:05;12.02;;;9.20;;
14007;SDS011;61651;45.508;12.232;2022-07-23T10:04:07;9.82;;;8.95;;
14007;SDS011;61651;45.508;12.232;2022-07-23T10:07:12;9.55;;;8.70;;
14007;SDS011;61651;45.508;12.232;2022-07-23T10:10:18;9.63;;;8.82;;
14007;SDS011;61651;45.508;12.232;2022-07-23T10:13:23;8.65;;;7.95;;
14007;SDS011;61651;45.508;12.232;2022-07-23T10:16:47;9.57;;;7.80;;
14007;SDS011;61651;45.508;12.232;2022-07-23T10:19:49;8.55;;;7.53;;
14007;SDS011;61651;45.508;12.232;2022-07-23T10:22:54;8.38;;;7.68;;
14007;SDS011;61651;45.508;12.232;2022-07-23T10:26:03;8.20;;;7.50;;
14007;SDS011;61651;45.508;12.232;2022-07-23T10:29:13;8.07;;;7.28;;
14007;SDS011;61651;45.508;12.232;2022-07-23T10:32:30;7.82;;;7.07;;
14007;SDS011;61651;45.508;12.232;2022-07-23T10:35:43;6.95;;;6.38;;
14007;SDS011;61651;45.508;12.232;2022-07-23T10:38:51;6.90;;;6.22;;
14007;SDS011;61651;45.508;12.232;2022-07-23T10:42:07;6.90;;;6.35;;
14007;SDS011;61651;45.508;12.232;2022-07-23T10:48:33;5.95;;;5.45;;
14007;SDS011;61651;45.508;12.232;2022-07-23T10:51:35;6.05;;;5.45;;
14007;SDS011;61651;45.508;12.232;2022-07-23T10:54:37;5.70;;;5.30;;
14007;SDS011;61651;45.508;12.232;2022-07-23T10:57:47;7.47;;;5.25;;
14007;SDS011;61651;45.508;12.232;2022-07-23T11:00:50;5.65;;;5.13;;
14007;SDS011;61651;45.508;12.232;2022-07-23T11:03:56;5.60;;;5.05;;
14007;SDS011;61651;45.508;12.232;2022-07-23T11:07:08;8.07;;;4.70;;
14007;SDS011;61651;45.508;12.232;2022-07-23T11:10:14;6.53;;;5.80;;
14007;SDS011;61651;45.508;12.232;2022-07-23T11:13:41;7.90;;;7.10;;
14007;SDS011;61651;45.508;12.232;2022-07-23T11:16:48;8.32;;;7.50;;
14007;SDS011;61651;45.508;12.232;2022-07-23T11:23:21;10.32;;;9.32;;
14007;SDS011;61651;45.508;12.232;2022-07-23T11:29:56;11.60;;;10.55;;
14007;SDS011;61651;45.508;12.232;2022-07-23T11:33:15;12.32;;;11.13;;
14007;SDS011;61651;45.508;12.232;2022-07-23T11:36:20;12.25;;;11.15;;
14007;SDS011;61651;45.508;12.232;2022-07-23T11:39:22;14.88;;;12.32;;
14007;SDS011;61651;45.508;12.232;2022-07-23T11:42:27;13.10;;;11.60;;
14007;SDS011;61651;45.508;12.232;2022-07-23T11:45:30;13.35;;;12.05;;
14007;SDS011;61651;45.508;12.232;2022-07-23T11:48:34;12.70;;;11.50;;
14007;SDS011;61651;45.508;12.232;2022-07-23T11:51:37;11.02;;;10.10;;
14007;SDS011;61651;45.508;12.232;2022-07-23T11:54:46;10.75;;;9.75;;
14007;SDS011;61651;45.508;12.232;2022-07-23T11:57:50;10.00;;;9.10;;
14007;SDS011;61651;45.508;12.232;2022-07-23T12:00:54;11.68;;;9.30;;
14007;SDS011;61651;45.508;12.232;2022-07-23T12:03:57;9.73;;;8.93;;
14007;SDS011;61651;45.508;12.232;2022-07-23T12:07:00;10.23;;;9.32;;
14007;SDS011;61651;45.508;12.232;2022-07-23T12:10:03;10.60;;;9.55;;
14007;SDS011;61651;45.508;12.232;2022-07-23T12:13:10;10.45;;;9.45;;
14007;SDS011;61651;45.508;12.232;2022-07-23T12:16:15;10.77;;;9.88;;
14007;SDS011;61651;45.508;12.232;2022-07-23T12:19:19;11.30;;;10.40;;
14007;SDS011;61651;45.508;12.232;2022-07-23T12:22:22;11.20;;;10.20;;
14007;SDS011;61651;45.508;12.232;2022-07-23T12:25:25;11.95;;;9.80;;
14007;SDS011;61651;45.508;12.232;2022-07-23T12:28:29;11.35;;;10.23;;
14007;SDS011;61651;45.508;12.232;2022-07-23T12:31:33;10.20;;;9.30;;
14007;SDS011;61651;45.508;12.232;2022-07-23T12:34:37;10.90;;;9.90;;
14007;SDS011;61651;45.508;12.232;2022-07-23T12:37:41;10.68;;;9.77;;
14007;SDS011;61651;45.508;12.232;2022-07-23T12:40:45;10.07;;;9.27;;
14007;SDS011;61651;45.508;12.232;2022-07-23T12:43:48;11.35;;;10.32;;
14007;SDS011;61651;45.508;12.232;2022-07-23T12:46:51;10.60;;;9.70;;
14007;SDS011;61651;45.508;12.232;2022-07-23T12:49:53;9.15;;;8.45;;
14007;SDS011;61651;45.508;12.232;2022-07-23T12:53:02;9.85;;;9.00;;
14007;SDS011;61651;45.508;12.232;2022-07-23T12:56:09;9.80;;;9.00;;
14007;SDS011;61651;45.508;12.232;2022-07-23T12:59:13;11.02;;;9.93;;
14007;SDS011;61651;45.508;12.232;2022-07-23T13:02:16;12.07;;;11.02;;
14007;SDS011;61651;45.508;12.232;2022-07-23T13:05:18;12.35;;;11.30;;
14007;SDS011;61651;45.508;12.232;2022-07-23T13:08:22;12.07;;;10.98;;
14007;SDS011;61651;45.508;12.232;2022-07-23T13:11:25;10.15;;;9.25;;
14007;SDS011;61651;45.508;12.232;2022-07-23T13:14:27;10.73;;;9.73;;
14007;SDS011;61651;45.508;12.232;2022-07-23T13:17:29;10.35;;;9.32;;
14007;SDS011;61651;45.508;12.232;2022-07-23T13:20:31;10.25;;;8.75;;
14007;SDS011;61651;45.508;12.232;2022-07-23T13:23:36;9.00;;;8.20;;
14007;SDS011;61651;45.508;12.232;2022-07-23T13:26:40;8.80;;;8.00;;
14007;SDS011;61651;45.508;12.232;2022-07-23T13:29:42;8.30;;;7.60;;
14007;SDS011;61651;45.508;12.232;2022-07-23T13:32:44;7.20;;;6.60;;
14007;SDS011;61651;45.508;12.232;2022-07-23T13:35:46;7.18;;;6.57;;
14007;SDS011;61651;45.508;12.232;2022-07-23T13:38:50;7.53;;;6.75;;
14007;SDS011;61651;45.508;12.232;2022-07-23T13:41:52;7.57;;;6.97;;
14007;SDS011;61651;45.508;12.232;2022-07-23T13:44:54;7.87;;;7.07;;
14007;SDS011;61651;45.508;12.232;2022-07-23T13:47:56;6.57;;;5.97;;
14007;SDS011;61651;45.508;12.232;2022-07-23T13:50:58;7.47;;;6.88;;
14007;SDS011;61651;45.508;12.232;2022-07-23T13:54:01;6.93;;;6.35;;
14007;SDS011;61651;45.508;12.232;2022-07-23T13:57:04;6.93;;;6.32;;
14007;SDS011;61651;45.508;12.232;2022-07-23T14:00:07;6.40;;;5.80;;
14007;SDS011;61651;45.508;12.232;2022-07-23T14:03:10;6.13;;;5.63;;
14007;SDS011;61651;45.508;12.232;2022-07-23T14:06:12;6.53;;;5.65;;
14007;SDS011;61651;45.508;12.232;2022-07-23T14:09:16;5.80;;;5.30;;
14007;SDS011;61651;45.508;12.232;2022-07-23T14:12:18;8.15;;;7.40;;
14007;SDS011;61651;45.508;12.232;2022-07-23T14:15:20;7.38;;;5.40;;
14007;SDS011;61651;45.508;12.232;2022-07-23T14:18:22;5.38;;;4.72;;
14007;SDS011;61651;45.508;12.232;2022-07-23T14:21:24;4.70;;;4.30;;
14007;SDS011;61651;45.508;12.232;2022-07-23T14:24:27;4.93;;;4.53;;
14007;SDS011;61651;45.508;12.232;2022-07-23T14:27:29;5.22;;;4.70;;
14007;SDS011;61651;45.508;12.232;2022-07-23T14:30:31;5.00;;;4.60;;
14007;SDS011;61651;45.508;12.232;2022-07-23T14:33:33;3.65;;;3.35;;
14007;SDS011;61651;45.508;12.232;2022-07-23T14:36:35;3.80;;;3.50;;
14007;SDS011;61651;45.508;12.232;2022-07-23T14:39:39;4.22;;;3.83;;
14007;SDS011;61651;45.508;12.232;2022-07-23T14:42:41;5.60;;;4.38;;
14007;SDS011;61651;45.508;12.232;2022-07-23T14:45:43;3.65;;;3.35;;
14007;SDS011;61651;45.508;12.232;2022-07-23T14:48:46;4.40;;;3.42;;
14007;SDS011;61651;45.508;12.232;2022-07-23T14:51:48;3.40;;;3.03;;
14007;SDS011;61651;45.508;12.232;2022-07-23T14:54:52;3.42;;;3.13;;
14007;SDS011;61651;45.508;12.232;2022-07-23T14:57:54;3.60;;;2.95;;
14007;SDS011;61651;45.508;12.232;2022-07-23T15:00:56;3.65;;;2.75;;
14007;SDS011;61651;45.508;12.232;2022-07-23T15:03:58;2.70;;;2.30;;
14007;SDS011;61651;45.508;12.232;2022-07-23T15:07:00;3.95;;;2.35;;
14007;SDS011;61651;45.508;12.232;2022-07-23T15:10:04;3.05;;;2.70;;
14007;SDS011;61651;45.508;12.232;2022-07-23T15:13:07;3.63;;;2.78;;
14007;SDS011;61651;45.508;12.232;2022-07-23T15:16:09;3.05;;;2.85;;
14007;SDS011;61651;45.508;12.232;2022-07-23T15:19:11;3.55;;;2.55;;
14007;SDS011;61651;45.508;12.232;2022-07-23T15:22:13;4.90;;;2.28;;
14007;SDS011;61651;45.508;12.232;2022-07-23T15:25:17;4.30;;;2.13;;
14007;SDS011;61651;45.508;12.232;2022-07-23T15:28:19;2.47;;;2.28;;
14007;SDS011;61651;45.508;12.232;2022-07-23T15:31:21;4.00;;;2.58;;
14007;SDS011;61651;45.508;12.232;2022-07-23T15:34:23;2.60;;;2.40;;
14007;SDS011;61651;45.508;12.232;2022-07-23T15:37:25;4.22;;;2.97;;
14007;SDS011;61651;45.508;12.232;2022-07-23T15:40:29;2.40;;;2.20;;
14007;SDS011;61651;45.508;12.232;2022-07-23T15:43:31;3.00;;;2.67;;
14007;SDS011;61651;45.508;12.232;2022-07-23T15:46:33;4.45;;;2.45;;
14007;SDS011;61651;45.508;12.232;2022-07-23T15:49:35;2.90;;;2.60;;
14007;SDS011;61651;45.508;12.232;2022-07-23T15:52:37;2.63;;;2.42;;
14007;SDS011;61651;45.508;12.232;2022-07-23T15:55:40;2.85;;;2.60;;
14007;SDS011;61651;45.508;12.232;2022-07-23T15:58:43;2.10;;;2.00;;
14007;SDS011;61651;45.508;12.232;2022-07-23T16:01:45;2.78;;;2.55;;
14007;SDS011;61651;45.508;12.232;2022-07-23T16:04:47;2.92;;;2.40;;
14007;SDS011;61651;45.508;12.232;2022-07-23T16:07:49;4.28;;;2.50;;
14007;SDS011;61651;45.508;12.232;2022-07-23T16:10:53;3.65;;;2.55;;
14007;SDS011;61651;45.508;12.232;2022-07-23T16:13:57;6.15;;;2.80;;
14007;SDS011;61651;45.508;12.232;2022-07-23T16:16:59;4.72;;;2.70;;
14007;SDS011;61651;45.508;12.232;2022-07-23T16:20:01;4.78;;;2.30;;
14007;SDS011;61651;45.508;12.232;2022-07-23T16:23:03;4.90;;;2.58;;
14007;SDS011;61651;45.508;12.232;2022-07-23T16:26:08;4.13;;;2.78;;
14007;SDS011;61651;45.508;12.232;2022-07-23T16:29:10;2.80;;;2.60;;
14007;SDS011;61651;45.508;12.232;2022-07-23T16:32:12;2.85;;;2.47;;
14007;SDS011;61651;45.508;12.232;2022-07-23T16:35:14;4.70;;;2.70;;
14007;SDS011;61651;45.508;12.232;2022-07-23T16:38:16;6.72;;;2.63;;
14007;SDS011;61651;45.508;12.232;2022-07-23T16:41:19;4.78;;;2.88;;
14007;SDS011;61651;45.508;12.232;2022-07-23T16:44:21;4.40;;;2.17;;
14007;SDS011;61651;45.508;12.232;2022-07-23T16:47:23;3.05;;;2.30;;
14007;SDS011;61651;45.508;12.232;2022-07-23T16:50:25;3.38;;;2.30;;
14007;SDS011;61651;45.508;12.232;2022-07-23T16:53:27;3.70;;;2.60;;
14007;SDS011;61651;45.508;12.232;2022-07-23T16:56:31;2.88;;;2.58;;
14007;SDS011;61651;45.508;12.232;2022-07-23T16:59:33;2.42;;;2.17;;
14007;SDS011;61651;45.508;12.232;2022-07-23T17:02:35;3.13;;;2.60;;
14007;SDS011;61651;45.508;12.232;2022-07-23T17:05:37;2.97;;;2.28;;
14007;SDS011;61651;45.508;12.232;2022-07-23T17:08:39;3.22;;;2.22;;
14007;SDS011;61651;45.508;12.232;2022-07-23T17:11:43;2.70;;;2.25;;
14007;SDS011;61651;45.508;12.232;2022-07-23T17:14:45;3.78;;;2.33;;
14007;SDS011;61651;45.508;12.232;2022-07-23T17:17:47;7.70;;;2.50;;
14007;SDS011;61651;45.508;12.232;2022-07-23T17:20:49;4.13;;;2.40;;
14007;SDS011;61651;45.508;12.232;2022-07-23T17:23:51;2.88;;;2.58;;
14007;SDS011;61651;45.508;12.232;2022-07-23T17:26:55;3.45;;;2.55;;
14007;SDS011;61651;45.508;12.232;2022-07-23T17:29:57;5.78;;;2.65;;
14007;SDS011;61651;45.508;12.232;2022-07-23T17:32:59;2.70;;;2.42;;
14007;SDS011;61651;45.508;12.232;2022-07-23T17:36:01;4.57;;;2.30;;
14007;SDS011;61651;45.508;12.232;2022-07-23T17:39:04;3.53;;;2.88;;
14007;SDS011;61651;45.508;12.232;2022-07-23T17:42:08;3.97;;;2.47;;
14007;SDS011;61651;45.508;12.232;2022-07-23T17:45:10;4.28;;;2.33;;
14007;SDS011;61651;45.508;12.232;2022-07-23T17:48:14;6.90;;;3.15;;
14007;SDS011;61651;45.508;12.232;2022-07-23T17:51:16;3.63;;;3.28;;
14007;SDS011;61651;45.508;12.232;2022-07-23T17:54:19;4.97;;;3.78;;
14007;SDS011;61651;45.508;12.232;2022-07-23T17:57:22;4.07;;;3.53;;